createdAt,value
2019-05-14T00:00:51.979Z,10.10
2019-05-14T00:03:21.912Z,10.00
2019-05-14T00:05:52.032Z,10.00
2019-05-14T00:08:23.163Z,10.00
2019-05-14T00:10:52.942Z,10.00
2019-05-14T00:13:23.298Z,9.90
2019-05-14T00:15:53.406Z,9.90
2019-05-14T00:18:23.656Z,9.90
2019-05-14T00:20:54.010Z,9.90
2019-05-14T00:23:23.892Z,9.90
2019-05-14T00:25:55.468Z,9.80
2019-05-14T00:28:25.328Z,9.80
2019-05-14T00:30:55.191Z,9.80
2019-05-14T00:33:26.160Z,9.80
2019-05-14T00:35:56.059Z,9.80
2019-05-14T00:38:26.046Z,9.80
2019-05-14T00:40:55.936Z,9.80
2019-05-14T00:43:25.733Z,9.70
2019-05-14T00:45:55.912Z,9.60
2019-05-14T00:48:28.712Z,9.60
2019-05-14T00:50:58.518Z,9.50
2019-05-14T00:53:28.455Z,9.40
2019-05-14T00:56:02.383Z,9.10
2019-05-14T00:58:32.384Z,9.20
2019-05-14T01:01:04.663Z,9.20
2019-05-14T01:03:34.435Z,9.10
2019-05-14T01:06:04.965Z,9.10
2019-05-14T01:08:34.782Z,8.90
2019-05-14T01:11:04.716Z,8.90
2019-05-14T01:13:34.900Z,8.90
2019-05-14T01:16:04.791Z,9.00
2019-05-14T01:18:34.499Z,8.90
2019-05-14T01:21:04.931Z,8.90
2019-05-14T01:23:37.799Z,8.80
2019-05-14T01:26:07.763Z,8.60
2019-05-14T01:28:38.298Z,8.40
2019-05-14T01:31:08.478Z,8.30
2019-05-14T01:33:41.065Z,8.20
2019-05-14T01:36:13.776Z,8.10
2019-05-14T01:38:43.607Z,8.00
2019-05-14T01:41:13.358Z,8.00
2019-05-14T01:43:43.355Z,8.00
2019-05-14T01:46:13.143Z,7.90
2019-05-14T01:48:46.222Z,7.90
2019-05-14T01:51:19.098Z,7.90
2019-05-14T01:53:48.955Z,7.80
2019-05-14T01:56:21.340Z,7.70
2019-05-14T01:58:52.241Z,7.70
2019-05-14T02:01:22.475Z,7.70
2019-05-14T02:03:59.038Z,7.60
2019-05-14T02:06:28.964Z,7.60
2019-05-14T02:09:02.026Z,7.50
2019-05-14T02:11:32.396Z,7.40
2019-05-14T02:14:02.575Z,7.30
2019-05-14T02:16:32.783Z,7.30
2019-05-14T02:19:05.765Z,7.20
2019-05-14T02:21:35.991Z,7.10
2019-05-14T02:24:07.151Z,6.90
2019-05-14T02:26:37.418Z,6.80
2019-05-14T02:29:07.574Z,6.70
2019-05-14T02:31:39.337Z,6.70
2019-05-14T02:34:10.223Z,6.70
2019-05-14T02:36:40.740Z,6.90
2019-05-14T02:39:10.798Z,6.90
2019-05-14T02:41:42.113Z,6.80
2019-05-14T02:44:11.900Z,6.80
2019-05-14T02:46:41.824Z,6.80
2019-05-14T02:49:12.081Z,6.80
2019-05-14T02:51:41.963Z,6.80
2019-05-14T02:54:11.878Z,6.80
2019-05-14T02:56:42.137Z,6.80
2019-05-14T02:59:13.363Z,6.70
2019-05-14T03:01:43.308Z,6.70
2019-05-14T03:04:13.510Z,6.70
2019-05-14T03:06:43.657Z,6.60
2019-05-14T03:09:13.779Z,6.50
2019-05-14T03:11:43.849Z,6.50
2019-05-14T03:14:13.715Z,6.50
2019-05-14T03:16:43.792Z,6.40
2019-05-14T03:19:13.684Z,6.40
2019-05-14T03:21:45.287Z,6.30
2019-05-14T03:24:15.359Z,6.30
2019-05-14T03:26:45.463Z,6.30
2019-05-14T03:29:15.332Z,6.20
2019-05-14T03:31:45.540Z,6.10
2019-05-14T03:34:21.546Z,6.00
2019-05-14T03:36:52.524Z,6.10
2019-05-14T03:39:20.851Z,6.10
2019-05-14T03:41:51.625Z,6.00
2019-05-14T03:44:21.497Z,6.10
2019-05-14T03:46:55.478Z,6.00
2019-05-14T03:49:24.505Z,6.00
2019-05-14T03:51:54.946Z,5.90
2019-05-14T03:54:24.939Z,5.80
2019-05-14T03:56:55.059Z,5.80
2019-05-14T03:59:25.318Z,5.70
2019-05-14T04:01:55.626Z,5.70
2019-05-14T04:04:25.928Z,5.60
2019-05-14T04:06:59.960Z,5.50
2019-05-14T04:09:31.449Z,5.50
2019-05-14T04:12:03.099Z,5.40
2019-05-14T04:14:39.839Z,5.30
2019-05-14T04:17:15.476Z,5.30
2019-05-14T04:19:45.514Z,5.40
2019-05-14T04:22:15.721Z,5.40
2019-05-14T04:24:49.833Z,5.40
2019-05-14T04:27:21.851Z,5.40
2019-05-14T04:29:53.640Z,5.40
2019-05-14T04:32:23.860Z,5.50
2019-05-14T04:34:53.673Z,5.40
2019-05-14T04:37:23.714Z,5.50
2019-05-14T04:39:54.081Z,5.50
2019-05-14T04:42:23.854Z,5.50
2019-05-14T04:44:53.639Z,5.50
2019-05-14T04:47:32.191Z,5.60
2019-05-14T04:49:59.048Z,5.60
2019-05-14T04:52:29.210Z,5.70
2019-05-14T04:54:59.672Z,5.80
2019-05-14T04:57:30.159Z,5.90
2019-05-14T05:00:00.705Z,6.00
2019-05-14T05:02:30.598Z,6.20
2019-05-14T05:05:00.311Z,6.30
2019-05-14T05:07:30.841Z,6.20
2019-05-14T05:10:01.689Z,6.30
2019-05-14T05:12:31.835Z,6.40
2019-05-14T05:15:01.855Z,6.40
2019-05-14T05:17:46.741Z,6.60
2019-05-14T05:20:03.199Z,6.60
2019-05-14T05:22:33.174Z,6.80
2019-05-14T05:25:02.954Z,6.80
2019-05-14T05:27:32.767Z,6.90
2019-05-14T05:30:02.482Z,6.90
2019-05-14T05:32:32.307Z,7.00
2019-05-14T05:35:02.407Z,7.00
2019-05-14T05:37:32.148Z,7.20
2019-05-14T05:40:01.967Z,7.30
2019-05-14T05:42:31.694Z,7.40
2019-05-14T05:45:01.934Z,7.50
2019-05-14T05:47:31.895Z,7.60
2019-05-14T05:50:02.266Z,7.70
2019-05-14T05:52:32.508Z,7.80
2019-05-14T05:55:02.902Z,7.80
2019-05-14T05:57:32.664Z,8.00
2019-05-14T06:00:02.567Z,8.10
2019-05-14T06:02:32.526Z,8.20
2019-05-14T06:05:02.507Z,8.30
2019-05-14T06:07:32.315Z,8.30
2019-05-14T06:10:02.273Z,8.30
2019-05-14T06:12:31.957Z,8.40
2019-05-14T06:15:01.770Z,8.40
2019-05-14T06:17:31.575Z,8.60
2019-05-14T06:20:01.942Z,8.70
2019-05-14T06:22:32.130Z,8.70
2019-05-14T06:25:02.034Z,8.80
2019-05-14T06:27:32.174Z,8.90
2019-05-14T06:30:02.356Z,9.00
2019-05-14T06:32:32.032Z,9.20
2019-05-14T06:35:02.051Z,9.30
2019-05-14T06:37:32.039Z,9.40
2019-05-14T06:40:02.124Z,9.50
2019-05-14T06:42:32.045Z,9.60
2019-05-14T06:45:02.153Z,9.70
2019-05-14T06:47:32.355Z,9.90
2019-05-14T06:50:02.575Z,10.00
2019-05-14T06:52:32.281Z,9.90
2019-05-14T06:55:02.240Z,10.00
2019-05-14T06:57:32.235Z,10.10
2019-05-14T07:00:02.308Z,10.10
2019-05-14T07:02:32.108Z,10.10
2019-05-14T07:05:01.830Z,10.10
2019-05-14T07:07:31.762Z,10.20
2019-05-14T07:10:01.978Z,10.10
2019-05-14T07:12:31.759Z,10.20
2019-05-14T07:15:01.519Z,10.30
2019-05-14T07:17:31.229Z,10.30
2019-05-14T07:20:01.250Z,10.40
2019-05-14T07:22:30.979Z,10.50
2019-05-14T07:25:00.669Z,10.60
2019-05-14T07:27:30.691Z,10.50
2019-05-14T07:30:00.514Z,10.60
2019-05-14T07:32:30.464Z,10.60
2019-05-14T07:35:01.075Z,10.60
2019-05-14T07:37:31.356Z,10.70
2019-05-14T07:40:01.124Z,10.80
2019-05-14T07:42:31.089Z,10.80
2019-05-14T07:45:00.781Z,10.80
2019-05-14T07:47:30.751Z,11.00
2019-05-14T07:50:00.518Z,11.20
2019-05-14T07:52:30.569Z,11.30
2019-05-14T07:55:00.341Z,11.30
2019-05-14T07:57:30.127Z,11.40
2019-05-14T08:00:00.208Z,11.50
2019-05-14T08:02:30.314Z,11.60
2019-05-14T08:05:01.250Z,11.80
2019-05-14T08:07:32.463Z,11.90
2019-05-14T08:10:02.328Z,12.00
2019-05-14T08:12:32.618Z,12.00
2019-05-14T08:15:15.461Z,12.00
2019-05-14T08:17:34.168Z,11.90
2019-05-14T08:20:04.652Z,11.90
2019-05-14T08:22:34.787Z,11.90
2019-05-14T08:25:04.999Z,11.90
2019-05-14T08:27:34.797Z,12.10
2019-05-14T08:30:05.425Z,12.30
2019-05-14T08:32:35.144Z,12.50
2019-05-14T08:35:05.098Z,12.60
2019-05-14T08:37:35.619Z,12.70
2019-05-14T08:40:05.828Z,12.70
2019-05-14T08:42:35.615Z,12.70
2019-05-14T08:45:11.551Z,12.90
2019-05-14T08:47:39.132Z,13.10
2019-05-14T08:50:09.492Z,13.10
2019-05-14T08:52:39.521Z,13.10
2019-05-14T08:55:13.795Z,13.00
2019-05-14T08:57:41.434Z,13.00
2019-05-14T09:00:14.405Z,12.80
2019-05-14T09:02:43.127Z,12.90
2019-05-14T09:05:13.035Z,12.80
2019-05-14T09:07:43.180Z,13.00
2019-05-14T09:10:13.255Z,13.10
2019-05-14T09:12:42.942Z,13.30
2019-05-14T09:15:12.931Z,13.50
2019-05-14T09:17:42.797Z,13.70
2019-05-14T09:20:12.808Z,13.80
2019-05-14T09:22:42.718Z,13.70
2019-05-14T09:25:13.097Z,13.70
2019-05-14T09:27:43.126Z,13.80
2019-05-14T09:30:13.215Z,14.00
2019-05-14T09:32:43.167Z,14.00
2019-05-14T09:35:13.076Z,14.00
2019-05-14T09:37:43.014Z,13.90
2019-05-14T09:40:13.130Z,14.30
2019-05-14T09:42:42.822Z,14.80
2019-05-14T09:45:12.796Z,15.20
2019-05-14T09:47:43.167Z,15.50
2019-05-14T09:50:18.568Z,15.10
2019-05-14T09:52:44.515Z,15.30
2019-05-14T09:55:14.283Z,15.40
2019-05-14T09:57:43.978Z,15.30
2019-05-14T10:00:14.693Z,15.10
2019-05-14T10:02:44.530Z,14.90
2019-05-14T10:05:14.649Z,14.90
2019-05-14T10:07:44.422Z,14.70
2019-05-14T10:10:14.431Z,14.60
2019-05-14T10:12:52.646Z,14.10
2019-05-14T10:15:16.384Z,14.20
2019-05-14T10:17:46.121Z,14.20
2019-05-14T10:20:32.148Z,14.30
2019-05-14T10:22:48.315Z,14.30
2019-05-14T10:25:18.529Z,14.50
2019-05-14T10:27:48.806Z,14.90
2019-05-14T10:30:18.765Z,15.30
2019-05-14T10:32:49.243Z,15.60
2019-05-14T10:35:19.388Z,15.90
2019-05-14T10:37:49.227Z,15.90
2019-05-14T10:40:19.055Z,15.30
2019-05-14T10:42:49.585Z,15.20
2019-05-14T10:45:19.911Z,15.40
2019-05-14T10:47:49.912Z,15.40
2019-05-14T10:50:19.756Z,15.50
2019-05-14T10:52:49.583Z,15.50
2019-05-14T10:55:19.650Z,15.50
2019-05-14T10:57:54.147Z,15.70
2019-05-14T11:00:21.731Z,15.90
2019-05-14T11:02:51.885Z,15.40
2019-05-14T11:05:21.887Z,15.30
2019-05-14T11:08:11.960Z,15.40
2019-05-14T11:10:42.307Z,15.40
2019-05-14T11:13:12.688Z,15.00
2019-05-14T11:15:42.567Z,15.20
2019-05-14T11:18:12.390Z,15.90
2019-05-14T11:20:42.491Z,16.20
2019-05-14T11:23:12.314Z,16.00
2019-05-14T11:25:42.379Z,15.80
2019-05-14T11:28:12.156Z,15.80
2019-05-14T11:30:42.150Z,15.70
2019-05-14T11:33:12.395Z,15.80
2019-05-14T11:35:42.483Z,15.90
2019-05-14T11:38:28.385Z,15.70
2019-05-14T11:40:43.824Z,15.60
2019-05-14T11:43:13.854Z,15.30
2019-05-14T11:45:43.720Z,15.50
2019-05-14T11:48:13.535Z,15.80
2019-05-14T11:50:43.629Z,15.60
2019-05-14T11:53:13.665Z,15.70
2019-05-14T11:55:43.571Z,16.10
2019-05-14T11:58:13.538Z,16.20
2019-05-14T12:00:43.423Z,16.50
2019-05-14T12:03:13.198Z,16.70
2019-05-14T12:05:43.383Z,17.00
2019-05-14T12:08:13.415Z,17.40
2019-05-14T12:10:43.434Z,17.50
2019-05-14T12:13:13.465Z,17.60
2019-05-14T12:15:43.498Z,18.00
2019-05-14T12:18:13.363Z,18.00
2019-05-14T12:20:43.104Z,18.50
2019-05-14T12:23:13.214Z,18.70
2019-05-14T12:25:42.922Z,18.50
2019-05-14T12:28:13.823Z,18.10
2019-05-14T12:30:43.798Z,18.10
2019-05-14T12:33:13.895Z,18.00
2019-05-14T12:35:43.591Z,17.60
2019-05-14T12:38:13.569Z,17.10
2019-05-14T12:40:43.399Z,16.50
2019-05-14T12:43:13.086Z,16.10
2019-05-14T12:45:43.036Z,16.40
2019-05-14T12:48:13.029Z,16.90
2019-05-14T12:50:42.827Z,17.20
2019-05-14T12:53:12.762Z,17.30
2019-05-14T12:55:42.615Z,17.50
2019-05-14T12:58:12.668Z,17.50
2019-05-14T13:00:42.531Z,18.10
2019-05-14T13:03:12.473Z,18.30
2019-05-14T13:05:43.331Z,18.60
2019-05-14T13:08:13.274Z,18.50
2019-05-14T13:10:43.148Z,18.70
2019-05-14T13:13:13.960Z,18.70
2019-05-14T13:15:43.932Z,18.70
2019-05-14T13:18:13.892Z,18.10
2019-05-14T13:20:43.730Z,17.60
2019-05-14T13:23:13.739Z,17.20
2019-05-14T13:25:43.458Z,17.60
2019-05-14T13:28:13.228Z,18.10
2019-05-14T13:30:43.251Z,18.40
2019-05-14T13:33:13.235Z,18.50
2019-05-14T13:35:42.927Z,18.60
2019-05-14T13:38:14.363Z,18.50
2019-05-14T13:40:44.162Z,18.30
2019-05-14T13:43:14.613Z,17.80
2019-05-14T13:45:45.049Z,17.60
2019-05-14T13:48:15.003Z,17.90
2019-05-14T13:50:44.915Z,17.60
2019-05-14T13:53:14.708Z,17.20
2019-05-14T13:55:47.666Z,16.90
2019-05-14T13:58:15.879Z,16.20
2019-05-14T14:00:51.541Z,16.20
2019-05-14T14:03:19.957Z,16.50
2019-05-14T14:05:49.987Z,17.20
2019-05-14T14:08:19.830Z,17.60
2019-05-14T14:10:53.681Z,17.50
2019-05-14T14:13:22.177Z,17.20
2019-05-14T14:15:51.870Z,16.60
2019-05-14T14:18:21.827Z,16.60
2019-05-14T14:20:52.098Z,16.90
2019-05-14T14:23:26.885Z,17.60
2019-05-14T14:25:59.335Z,18.10
2019-05-14T14:28:27.975Z,18.50
2019-05-14T14:30:57.691Z,17.50
2019-05-14T14:33:28.938Z,17.10
2019-05-14T14:35:58.923Z,16.80
2019-05-14T14:38:29.435Z,16.40
2019-05-14T14:40:59.499Z,16.30
2019-05-14T14:43:29.681Z,15.90
2019-05-14T14:45:59.597Z,15.80
2019-05-14T14:48:30.470Z,16.10
2019-05-14T14:51:00.626Z,16.80
2019-05-14T14:53:42.976Z,17.30
2019-05-14T14:56:01.943Z,17.50
2019-05-14T14:58:31.856Z,17.40
2019-05-14T15:01:02.035Z,17.00
2019-05-14T15:03:32.125Z,16.80
2019-05-14T15:06:02.011Z,16.70
2019-05-14T15:08:31.834Z,16.20
2019-05-14T15:11:02.164Z,15.90
2019-05-14T15:13:32.126Z,15.90
2019-05-14T15:16:01.954Z,15.80
2019-05-14T15:18:32.174Z,15.70
2019-05-14T15:21:01.880Z,15.70
2019-05-14T15:23:31.977Z,15.70
2019-05-14T15:26:02.132Z,15.50
2019-05-14T15:28:32.128Z,15.60
2019-05-14T15:31:02.197Z,16.10
2019-05-14T15:33:32.219Z,16.10
2019-05-14T15:36:02.008Z,16.10
2019-05-14T15:38:31.870Z,16.20
2019-05-14T15:41:02.211Z,16.10
2019-05-14T15:43:32.030Z,16.30
2019-05-14T15:46:01.805Z,16.60
2019-05-14T15:48:31.533Z,16.70
2019-05-14T15:51:01.775Z,16.30
2019-05-14T15:53:31.477Z,16.20
2019-05-14T15:56:01.764Z,15.80
2019-05-14T15:58:31.738Z,15.60
2019-05-14T16:01:01.817Z,15.30
2019-05-14T16:03:31.618Z,15.10
2019-05-14T16:06:01.844Z,14.90
2019-05-14T16:08:31.907Z,15.00
2019-05-14T16:11:05.405Z,15.00
2019-05-14T16:13:33.366Z,15.10
2019-05-14T16:16:03.097Z,15.20
2019-05-14T16:18:33.038Z,15.10
2019-05-14T16:21:02.872Z,15.20
2019-05-14T16:23:32.977Z,14.90
2019-05-14T16:26:03.222Z,14.90
2019-05-14T16:28:33.257Z,14.50
2019-05-14T16:31:03.222Z,14.50
2019-05-14T16:33:33.371Z,14.40
2019-05-14T16:36:03.143Z,14.60
2019-05-14T16:38:33.232Z,14.50
2019-05-14T16:41:03.013Z,14.60
2019-05-14T16:43:32.873Z,14.80
2019-05-14T16:46:02.669Z,14.90
2019-05-14T16:48:32.546Z,15.10
2019-05-14T16:51:02.255Z,15.30
2019-05-14T16:53:32.082Z,15.10
2019-05-14T16:56:02.004Z,15.30
2019-05-14T16:58:31.820Z,15.30
2019-05-14T17:01:01.791Z,15.30
2019-05-14T17:03:31.928Z,14.90
2019-05-14T17:06:01.619Z,15.00
2019-05-14T17:08:31.520Z,14.80
2019-05-14T17:11:01.566Z,14.60
2019-05-14T17:13:31.902Z,14.30
2019-05-14T17:16:01.752Z,14.20
2019-05-14T17:18:31.843Z,13.90
2019-05-14T17:21:01.633Z,14.00
2019-05-14T17:23:32.175Z,13.70
2019-05-14T17:26:01.950Z,13.90
2019-05-14T17:28:31.682Z,14.00
2019-05-14T17:31:01.386Z,14.20
2019-05-14T17:33:31.281Z,14.10
2019-05-14T17:36:01.289Z,14.10
2019-05-14T17:38:31.202Z,13.60
2019-05-14T17:41:00.992Z,13.60
2019-05-14T17:43:30.721Z,13.40
2019-05-14T17:46:00.689Z,13.30
2019-05-14T17:48:30.470Z,13.50
2019-05-14T17:51:00.154Z,13.40
2019-05-14T17:53:29.914Z,13.50
2019-05-14T17:56:00.039Z,13.40
2019-05-14T17:58:29.843Z,13.20
2019-05-14T18:00:59.671Z,13.20
2019-05-14T18:03:29.935Z,13.10
2019-05-14T18:05:59.628Z,13.00
2019-05-14T18:08:30.137Z,12.90
2019-05-14T18:11:01.758Z,12.60
2019-05-14T18:13:31.943Z,12.40
2019-05-14T18:16:01.651Z,12.20
2019-05-14T18:18:31.903Z,12.30
2019-05-14T18:21:02.054Z,12.10
2019-05-14T18:23:32.271Z,12.30
2019-05-14T18:26:08.253Z,12.30
2019-05-14T18:28:33.928Z,12.10
2019-05-14T18:31:03.973Z,11.90
2019-05-14T18:33:33.842Z,11.80
2019-05-14T18:36:03.774Z,11.90
2019-05-14T18:38:34.376Z,11.80
2019-05-14T18:41:04.199Z,11.70
2019-05-14T18:43:33.984Z,11.60
2019-05-14T18:46:03.811Z,11.70
2019-05-14T18:48:33.546Z,11.80
2019-05-14T18:51:03.403Z,11.80
2019-05-14T18:53:33.171Z,11.70
2019-05-14T18:56:16.569Z,11.80
2019-05-14T18:58:34.577Z,11.60
2019-05-14T19:01:04.454Z,11.40
2019-05-14T19:03:34.435Z,11.50
2019-05-14T19:06:04.459Z,11.50
2019-05-14T19:08:34.493Z,11.60
2019-05-14T19:11:04.607Z,11.60
2019-05-14T19:13:34.304Z,11.50
2019-05-14T19:16:04.265Z,11.60
2019-05-14T19:18:34.475Z,11.50
2019-05-14T19:21:04.694Z,11.50
2019-05-14T19:23:34.498Z,11.30
2019-05-14T19:26:04.464Z,11.40
2019-05-14T19:28:34.267Z,11.20
2019-05-14T19:31:04.151Z,11.10
2019-05-14T19:33:34.454Z,11.30
2019-05-14T19:36:04.282Z,11.20
2019-05-14T19:38:34.162Z,11.20
2019-05-14T19:41:04.008Z,11.10
2019-05-14T19:43:34.361Z,11.10
2019-05-14T19:46:05.070Z,11.00
2019-05-14T19:48:35.483Z,10.80
2019-05-14T19:51:08.057Z,11.00
2019-05-14T19:53:39.223Z,11.00
2019-05-14T19:56:09.498Z,11.00
2019-05-14T19:58:39.291Z,10.90
2019-05-14T20:01:09.341Z,10.90
2019-05-14T20:03:39.317Z,10.70
2019-05-14T20:06:09.373Z,10.80
2019-05-14T20:08:39.174Z,10.70
2019-05-14T20:11:09.090Z,10.60
2019-05-14T20:13:39.402Z,10.50
2019-05-14T20:16:09.366Z,10.50
2019-05-14T20:18:39.895Z,10.60
2019-05-14T20:21:09.879Z,10.60
2019-05-14T20:23:39.623Z,10.60
2019-05-14T20:26:09.836Z,10.50
2019-05-14T20:28:39.628Z,10.40
2019-05-14T20:31:10.704Z,10.40
2019-05-14T20:33:40.667Z,10.40
2019-05-14T20:36:10.498Z,10.40
2019-05-14T20:38:40.359Z,10.40
2019-05-14T20:41:10.218Z,10.40
2019-05-14T20:43:40.070Z,10.40
2019-05-14T20:46:10.238Z,10.40
2019-05-14T20:48:40.320Z,10.20
2019-05-14T20:51:10.159Z,10.20
2019-05-14T20:53:40.238Z,10.20
2019-05-14T20:56:10.411Z,10.20
2019-05-14T20:58:40.175Z,10.10
2019-05-14T21:01:11.397Z,10.10
2019-05-14T21:03:44.014Z,10.20
2019-05-14T21:06:13.264Z,10.20
2019-05-14T21:08:42.966Z,10.30
2019-05-14T21:11:12.831Z,10.30
2019-05-14T21:13:42.935Z,10.20
2019-05-14T21:16:14.018Z,10.10
2019-05-14T21:18:43.742Z,10.20
2019-05-14T21:21:13.558Z,10.20
2019-05-14T21:23:43.306Z,10.20
2019-05-14T21:26:13.015Z,10.00
2019-05-14T21:28:42.782Z,10.00
2019-05-14T21:31:12.926Z,9.90
2019-05-14T21:33:42.821Z,9.90
2019-05-14T21:36:12.790Z,9.80
2019-05-14T21:38:42.507Z,9.80
2019-05-14T21:41:12.470Z,9.70
2019-05-14T21:43:42.503Z,9.70
2019-05-14T21:46:12.423Z,9.70
2019-05-14T21:48:42.793Z,9.60
2019-05-14T21:51:12.646Z,9.60
2019-05-14T21:53:42.482Z,9.60
2019-05-14T21:56:18.524Z,9.50
2019-05-14T21:58:48.126Z,9.50
2019-05-14T22:01:20.463Z,9.40
2019-05-14T22:03:51.965Z,9.40
2019-05-14T22:06:21.791Z,9.40
2019-05-14T22:08:51.946Z,9.30
2019-05-14T22:11:21.849Z,9.30
2019-05-14T22:13:51.845Z,9.30
2019-05-14T22:16:21.926Z,9.30
2019-05-14T22:18:52.834Z,9.20
2019-05-14T22:21:23.038Z,9.20
2019-05-14T22:23:52.894Z,9.20
2019-05-14T22:26:25.507Z,9.10
2019-05-14T22:28:55.526Z,9.10
2019-05-14T22:31:25.473Z,9.10
2019-05-14T22:33:55.565Z,9.10
2019-05-14T22:36:29.346Z,9.10
2019-05-14T22:38:59.381Z,9.00
2019-05-14T22:41:30.151Z,8.80
2019-05-14T22:44:00.164Z,8.80
2019-05-14T22:46:31.073Z,8.80
2019-05-14T22:49:01.022Z,8.70
2019-05-14T22:51:33.188Z,8.60
2019-05-14T22:54:02.817Z,8.50
2019-05-14T22:56:33.962Z,8.50
2019-05-14T22:59:03.734Z,8.40
2019-05-14T23:01:33.727Z,8.40
2019-05-14T23:04:03.971Z,8.30
2019-05-14T23:06:33.756Z,8.30
2019-05-14T23:09:04.768Z,8.10
2019-05-14T23:11:34.808Z,8.10
2019-05-14T23:14:04.923Z,8.00
2019-05-14T23:16:39.386Z,8.00
2019-05-14T23:19:07.989Z,8.00
2019-05-14T23:21:39.136Z,7.90
2019-05-14T23:24:14.859Z,8.00
2019-05-14T23:26:44.893Z,8.00
2019-05-14T23:29:14.679Z,8.00
2019-05-14T23:31:44.441Z,7.90
2019-05-14T23:34:16.057Z,7.90
2019-05-14T23:36:48.165Z,8.00
2019-05-14T23:39:17.542Z,7.90
2019-05-14T23:41:48.743Z,7.70
2019-05-14T23:44:19.214Z,7.70
2019-05-14T23:46:48.998Z,7.60
2019-05-14T23:49:18.720Z,7.60
2019-05-14T23:51:48.506Z,7.60
2019-05-14T23:54:18.366Z,7.60
2019-05-14T23:56:48.899Z,7.50
2019-05-14T23:59:19.027Z,7.50
